createdAt,value
2023-01-11T00:01:50.462Z,44.52
2023-01-11T00:06:54.062Z,44.00
2023-01-11T00:11:57.668Z,44.29
2023-01-11T00:17:02.741Z,44.20
2023-01-11T00:22:06.426Z,43.83
2023-01-11T00:27:10.038Z,43.62
2023-01-11T00:32:15.073Z,43.53
2023-01-11T00:37:18.695Z,43.24
2023-01-11T00:42:39.311Z,44.24
2023-01-11T00:48:00.839Z,43.96
2023-01-11T00:53:05.017Z,43.06
2023-01-11T00:58:08.654Z,43.38
2023-01-11T01:03:13.442Z,43.98
2023-01-11T01:08:18.804Z,43.18
2023-01-11T01:13:39.436Z,43.86
2023-01-11T01:18:44.966Z,43.48
2023-01-11T01:23:48.469Z,43.50
2023-01-11T01:28:51.996Z,43.08
2023-01-11T01:33:56.874Z,43.66
2023-01-11T01:39:01.524Z,43.43
2023-01-11T01:44:07.549Z,43.63
2023-01-11T01:49:16.787Z,42.25
2023-01-11T01:54:24.389Z,42.80
2023-01-11T01:59:29.848Z,42.47
2023-01-11T02:04:37.446Z,42.55
2023-01-11T02:09:45.909Z,42.00
2023-01-11T02:14:50.721Z,42.34
2023-01-11T02:19:59.385Z,42.32
2023-01-11T02:25:41.114Z,41.61
2023-01-11T02:30:53.954Z,41.76
2023-01-11T02:36:07.683Z,41.76
2023-01-11T02:41:21.578Z,41.83
2023-01-11T02:46:33.557Z,41.31
2023-01-11T02:51:44.310Z,42.40
2023-01-11T02:56:50.622Z,42.58
2023-01-11T03:01:56.223Z,42.05
2023-01-11T03:07:16.743Z,41.50
2023-01-11T03:12:55.016Z,41.79
2023-01-11T03:18:13.378Z,41.48
2023-01-11T03:23:22.469Z,42.45
2023-01-11T03:28:36.688Z,41.78
2023-01-11T03:33:48.273Z,42.05
2023-01-11T03:38:57.453Z,42.01
2023-01-11T03:44:02.913Z,42.51
2023-01-11T03:49:14.485Z,42.13
2023-01-11T03:54:24.653Z,41.66
2023-01-11T03:59:29.111Z,42.57
2023-01-11T04:04:33.896Z,41.87
2023-01-11T04:09:38.342Z,42.62
2023-01-11T04:14:41.801Z,42.89
2023-01-11T04:19:46.894Z,42.34
2023-01-11T04:24:50.403Z,42.20
2023-01-11T04:29:53.988Z,42.97
2023-01-11T04:34:58.875Z,42.77
2023-01-11T04:40:02.742Z,42.21
2023-01-11T04:45:08.167Z,42.51
2023-01-11T04:50:13.925Z,42.34
2023-01-11T04:55:17.509Z,42.52
2023-01-11T05:00:21.437Z,42.62
2023-01-11T05:05:26.216Z,42.52
2023-01-11T05:10:29.960Z,42.96
2023-01-11T05:15:33.542Z,43.39
2023-01-11T05:20:38.668Z,43.14
2023-01-11T05:25:42.209Z,44.00
2023-01-11T05:30:45.803Z,43.60
2023-01-11T05:35:50.865Z,44.02
2023-01-11T05:40:58.789Z,44.20
2023-01-11T05:46:02.683Z,44.12
2023-01-11T05:51:07.837Z,44.58
2023-01-11T05:56:11.410Z,45.32
2023-01-11T06:01:14.866Z,44.98
2023-01-11T06:06:21.104Z,44.93
2023-01-11T06:11:24.967Z,45.03
2023-01-11T06:16:28.684Z,45.73
2023-01-11T06:21:33.746Z,46.02
2023-01-11T06:26:37.337Z,46.11
2023-01-11T06:31:40.988Z,45.27
2023-01-11T06:36:46.086Z,46.18
2023-01-11T06:41:49.686Z,46.04
2023-01-11T06:46:53.449Z,46.25
2023-01-11T06:51:58.433Z,46.31
2023-01-11T06:57:02.141Z,46.65
2023-01-11T07:02:05.712Z,46.13
2023-01-11T07:07:10.732Z,46.38
2023-01-11T07:12:14.349Z,47.13
2023-01-11T07:17:17.931Z,46.14
2023-01-11T07:22:23.786Z,45.78
2023-01-11T07:27:27.398Z,45.75
2023-01-11T07:32:30.859Z,46.92
2023-01-11T07:37:38.984Z,46.71
2023-01-11T07:42:59.689Z,46.31
2023-01-11T07:48:04.337Z,45.93
2023-01-11T07:53:10.098Z,46.44
2023-01-11T07:58:14.790Z,45.96
2023-01-11T08:03:18.191Z,46.88
2023-01-11T08:08:23.571Z,45.91
2023-01-11T08:13:44.219Z,46.02
2023-01-11T08:18:47.866Z,46.33
2023-01-11T08:23:54.784Z,47.07
2023-01-11T08:28:58.412Z,46.96
2023-01-11T08:34:01.944Z,46.75
2023-01-11T08:39:07.142Z,46.09
2023-01-11T08:44:14.688Z,46.77
2023-01-11T08:49:18.570Z,46.60
2023-01-11T08:54:23.685Z,46.33
2023-01-11T08:59:27.332Z,46.78
2023-01-11T09:04:30.807Z,46.61
2023-01-11T09:09:37.292Z,46.84
2023-01-11T09:14:40.774Z,46.85
2023-01-11T09:19:44.517Z,46.81
2023-01-11T09:24:49.281Z,46.72
2023-01-11T09:29:53.237Z,46.95
2023-01-11T09:34:58.330Z,47.43
2023-01-11T09:40:03.737Z,48.00
2023-01-11T09:45:16.029Z,48.14
2023-01-11T09:50:23.996Z,48.63
2023-01-11T09:55:34.903Z,47.29
2023-01-11T10:00:52.001Z,48.68
2023-01-11T10:06:09.219Z,48.08
2023-01-11T10:18:37.855Z,47.25
2023-01-11T10:22:31.793Z,47.57
2023-01-11T10:27:40.714Z,47.54
2023-01-11T10:33:06.019Z,46.89
2023-01-11T10:38:41.293Z,47.06
2023-01-11T10:43:50.855Z,47.71
2023-01-11T10:49:04.980Z,47.57
2023-01-11T10:54:16.951Z,47.50
2023-01-11T10:59:39.890Z,47.55
2023-01-11T11:04:58.732Z,47.23
2023-01-11T11:10:12.475Z,47.21
2023-01-11T11:15:25.548Z,46.57
2023-01-11T11:20:33.647Z,46.31
2023-01-11T11:25:40.050Z,46.73
2023-01-11T11:30:48.621Z,47.17
2023-01-11T11:35:58.093Z,47.92
2023-01-11T11:41:08.563Z,48.17
2023-01-11T11:46:26.660Z,49.12
2023-01-11T11:51:30.306Z,49.23
2023-01-11T11:56:37.820Z,50.97
2023-01-11T12:01:47.178Z,51.72
2023-01-11T12:07:06.037Z,51.50
2023-01-11T12:12:16.041Z,52.67
2023-01-11T12:17:26.764Z,54.22
2023-01-11T12:22:30.699Z,54.66
2023-01-11T12:27:42.265Z,53.81
2023-01-11T12:33:21.249Z,54.79
2023-01-11T12:38:44.670Z,55.23
2023-01-11T12:44:00.276Z,55.25
2023-01-11T12:49:20.117Z,56.46
2023-01-11T12:54:39.854Z,56.89
2023-01-11T13:00:12.155Z,57.42
2023-01-11T13:05:24.774Z,56.18
2023-01-11T13:10:38.333Z,56.52
2023-01-11T13:21:25.850Z,57.50
2023-01-11T13:26:35.484Z,57.11
2023-01-11T13:31:39.868Z,57.35
2023-01-11T13:36:47.160Z,57.69
2023-01-11T13:41:56.691Z,57.13
2023-01-11T13:47:07.666Z,57.87
2023-01-11T13:52:15.080Z,57.56
2023-01-11T13:57:26.400Z,58.62
2023-01-11T14:02:38.666Z,57.84
2023-01-11T14:08:01.116Z,57.97
2023-01-11T14:13:42.970Z,58.25
2023-01-11T14:18:55.216Z,58.67
2023-01-11T14:23:59.733Z,59.41
2023-01-11T14:29:28.654Z,58.54
2023-01-11T14:35:13.335Z,59.04
2023-01-11T14:40:49.844Z,58.29
2023-01-11T14:46:16.362Z,59.06
2023-01-11T14:51:33.635Z,59.19
2023-01-11T14:56:49.415Z,57.38
2023-01-11T15:02:28.460Z,57.41
2023-01-11T15:07:38.002Z,57.50
2023-01-11T15:12:42.442Z,56.98
2023-01-11T15:18:07.792Z,56.25
2023-01-11T15:23:17.630Z,55.82
2023-01-11T15:28:44.849Z,55.80
2023-01-11T15:33:51.160Z,55.90
2023-01-11T15:39:01.576Z,56.22
2023-01-11T15:44:36.620Z,55.76
2023-01-11T15:49:54.817Z,55.90
2023-01-11T15:55:25.960Z,55.41
2023-01-11T16:01:04.476Z,56.11
2023-01-11T16:06:17.845Z,55.53
2023-01-11T16:11:33.715Z,56.16
2023-01-11T16:16:41.638Z,56.22
2023-01-11T16:21:49.611Z,56.76
2023-01-11T16:26:58.836Z,56.37
2023-01-11T16:32:04.921Z,57.27
2023-01-11T16:37:23.513Z,56.51
2023-01-11T16:42:31.742Z,56.77
2023-01-11T16:47:35.539Z,57.21
2023-01-11T16:52:49.841Z,56.83
2023-01-11T16:57:58.957Z,57.72
2023-01-11T17:03:13.528Z,56.54
2023-01-11T17:08:26.206Z,55.42
2023-01-11T17:14:02.943Z,55.10
2023-01-11T17:19:10.100Z,55.19
2023-01-11T17:24:15.639Z,55.14
2023-01-11T17:29:28.852Z,54.95
2023-01-11T17:34:35.090Z,54.69
2023-01-11T17:39:41.106Z,54.72
2023-01-11T17:45:05.368Z,54.18
2023-01-11T17:50:22.222Z,54.49
2023-01-11T17:55:28.513Z,53.90
2023-01-11T18:00:33.613Z,53.23
2023-01-11T18:05:37.546Z,53.51
2023-01-11T18:10:45.045Z,52.98
2023-01-11T18:15:50.077Z,52.71
2023-01-11T18:20:53.780Z,52.65
2023-01-11T18:26:25.513Z,51.99
2023-01-11T18:31:30.824Z,52.44
2023-01-11T18:36:34.717Z,52.34
2023-01-11T18:41:56.451Z,52.15
2023-01-11T18:47:01.657Z,52.41
2023-01-11T18:52:05.978Z,51.80
2023-01-11T18:57:09.972Z,52.49
2023-01-11T19:02:21.643Z,51.88
2023-01-11T19:07:26.453Z,51.67
2023-01-11T19:12:29.927Z,51.80
2023-01-11T19:17:35.021Z,51.81
2023-01-11T19:22:38.794Z,52.42
2023-01-11T19:27:42.615Z,52.56
2023-01-11T19:32:52.002Z,53.28
2023-01-11T19:37:55.581Z,53.45
2023-01-11T19:43:00.111Z,53.65
2023-01-11T19:48:05.587Z,53.79
2023-01-11T19:53:09.008Z,52.58
2023-01-11T19:58:12.624Z,52.66
2023-01-11T20:03:17.352Z,53.53
2023-01-11T20:08:22.633Z,54.03
2023-01-11T20:13:26.133Z,53.87
2023-01-11T20:18:31.211Z,54.27
2023-01-11T20:23:34.990Z,54.45
2023-01-11T20:28:38.581Z,53.97
2023-01-11T20:33:43.473Z,54.42
2023-01-11T20:38:47.297Z,55.68
2023-01-11T20:43:50.611Z,55.08
2023-01-11T20:48:55.772Z,54.52
2023-01-11T20:53:59.285Z,54.22
2023-01-11T20:59:03.662Z,55.02
2023-01-11T21:04:10.599Z,54.73
2023-01-11T21:09:16.096Z,54.02
2023-01-11T21:14:19.566Z,54.43
2023-01-11T21:19:27.662Z,53.49
2023-01-11T21:24:31.312Z,53.34
2023-01-11T21:29:35.000Z,53.84
2023-01-11T21:34:39.877Z,53.81
2023-01-11T21:39:43.424Z,54.12
2023-01-11T21:44:46.949Z,53.92
2023-01-11T21:49:52.041Z,53.95
2023-01-11T21:54:55.464Z,54.27
2023-01-11T21:59:59.004Z,54.89
2023-01-11T22:05:03.803Z,54.84
2023-01-11T22:10:07.797Z,55.14
2023-01-11T22:15:12.034Z,54.90
2023-01-11T22:20:17.750Z,55.08
2023-01-11T22:25:21.053Z,55.11
2023-01-11T22:30:24.767Z,55.23
2023-01-11T22:35:31.221Z,55.81
2023-01-11T22:40:34.844Z,55.45
2023-01-11T22:45:38.340Z,55.27
2023-01-11T22:50:43.429Z,54.89
2023-01-11T22:55:46.920Z,54.71
2023-01-11T23:00:50.282Z,54.52
2023-01-11T23:05:55.042Z,54.44
2023-01-11T23:11:00.452Z,53.93
2023-01-11T23:16:03.938Z,53.86
2023-01-11T23:21:08.967Z,53.30
2023-01-11T23:26:13.128Z,52.80
2023-01-11T23:31:19.029Z,53.11
2023-01-11T23:36:25.792Z,53.29
2023-01-11T23:41:46.900Z,53.06
2023-01-11T23:47:23.955Z,52.57
2023-01-11T23:52:31.303Z,52.99
2023-01-11T23:57:34.841Z,52.71
